sensor_id;sensor_type;location;lat;lon;timestamp;P1;durP1;ratioP1;P2;durP2;ratioP2
62724;SDS011;49026;52.600;4.694;2023-03-03T00:02:01;16.02;;;6.07;;
62724;SDS011;49026;52.600;4.694;2023-03-03T00:04:27;13.13;;;6.20;;
62724;SDS011;49026;52.600;4.694;2023-03-03T00:06:55;14.63;;;6.32;;
62724;SDS011;49026;52.600;4.694;2023-03-03T00:09:21;15.75;;;6.25;;
62724;SDS011;49026;52.600;4.694;2023-03-03T00:11:47;14.55;;;5.82;;
62724;SDS011;49026;52.600;4.694;2023-03-03T00:14:23;21.00;;;7.00;;
62724;SDS011;49026;52.600;4.694;2023-03-03T00:16:54;12.13;;;4.95;;
62724;SDS011;49026;52.600;4.694;2023-03-03T00:19:20;13.02;;;4.65;;
62724;SDS011;49026;52.600;4.694;2023-03-03T00:21:48;12.15;;;5.55;;
62724;SDS011;49026;52.600;4.694;2023-03-03T00:26:42;12.80;;;4.20;;
62724;SDS011;49026;52.600;4.694;2023-03-03T00:34:39;8.93;;;3.65;;
62724;SDS011;49026;52.600;4.694;2023-03-03T00:37:17;10.68;;;4.07;;
62724;SDS011;49026;52.600;4.694;2023-03-03T00:39:49;9.88;;;3.60;;
62724;SDS011;49026;52.600;4.694;2023-03-03T00:42:15;10.50;;;3.78;;
62724;SDS011;49026;52.600;4.694;2023-03-03T00:47:37;7.13;;;3.50;;
62724;SDS011;49026;52.600;4.694;2023-03-03T00:52:36;9.00;;;3.55;;
62724;SDS011;49026;52.600;4.694;2023-03-03T00:55:04;7.18;;;2.30;;
62724;SDS011;49026;52.600;4.694;2023-03-03T00:57:30;6.22;;;2.95;;
62724;SDS011;49026;52.600;4.694;2023-03-03T00:59:56;10.50;;;3.40;;
62724;SDS011;49026;52.600;4.694;2023-03-03T01:02:21;7.15;;;2.15;;
62724;SDS011;49026;52.600;4.694;2023-03-03T01:04:51;6.45;;;2.60;;
62724;SDS011;49026;52.600;4.694;2023-03-03T01:07:20;6.47;;;2.40;;
62724;SDS011;49026;52.600;4.694;2023-03-03T01:09:45;8.30;;;2.53;;
62724;SDS011;49026;52.600;4.694;2023-03-03T01:12:11;8.95;;;2.80;;
62724;SDS011;49026;52.600;4.694;2023-03-03T01:14:37;4.85;;;1.88;;
62724;SDS011;49026;52.600;4.694;2023-03-03T01:17:03;6.60;;;3.10;;
62724;SDS011;49026;52.600;4.694;2023-03-03T01:19:29;10.60;;;2.42;;
62724;SDS011;49026;52.600;4.694;2023-03-03T01:21:54;6.97;;;2.15;;
62724;SDS011;49026;52.600;4.694;2023-03-03T01:24:20;10.48;;;2.42;;
62724;SDS011;49026;52.600;4.694;2023-03-03T01:26:45;6.50;;;1.98;;
62724;SDS011;49026;52.600;4.694;2023-03-03T01:29:11;5.50;;;1.80;;
62724;SDS011;49026;52.600;4.694;2023-03-03T01:31:36;6.47;;;2.70;;
62724;SDS011;49026;52.600;4.694;2023-03-03T01:34:02;6.47;;;2.30;;
62724;SDS011;49026;52.600;4.694;2023-03-03T01:36:28;8.20;;;1.77;;
62724;SDS011;49026;52.600;4.694;2023-03-03T01:38:57;8.20;;;2.83;;
62724;SDS011;49026;52.600;4.694;2023-03-03T01:41:22;8.18;;;2.45;;
62724;SDS011;49026;52.600;4.694;2023-03-03T01:43:50;12.25;;;2.22;;
62724;SDS011;49026;52.600;4.694;2023-03-03T01:49:11;6.32;;;2.05;;
62724;SDS011;49026;52.600;4.694;2023-03-03T01:51:42;3.40;;;1.85;;
62724;SDS011;49026;52.600;4.694;2023-03-03T01:54:17;4.25;;;1.77;;
62724;SDS011;49026;52.600;4.694;2023-03-03T01:56:48;4.53;;;1.35;;
62724;SDS011;49026;52.600;4.694;2023-03-03T01:59:20;4.53;;;1.50;;
62724;SDS011;49026;52.600;4.694;2023-03-03T02:01:49;3.70;;;1.67;;
62724;SDS011;49026;52.600;4.694;2023-03-03T02:04:15;8.52;;;1.80;;
62724;SDS011;49026;52.600;4.694;2023-03-03T02:06:46;6.88;;;1.15;;
62724;SDS011;49026;52.600;4.694;2023-03-03T02:09:20;7.50;;;1.33;;
62724;SDS011;49026;52.600;4.694;2023-03-03T02:11:53;2.67;;;1.27;;
62724;SDS011;49026;52.600;4.694;2023-03-03T02:14:25;1.40;;;1.05;;
62724;SDS011;49026;52.600;4.694;2023-03-03T02:16:51;2.15;;;1.25;;
62724;SDS011;49026;52.600;4.694;2023-03-03T02:19:22;6.35;;;1.48;;
62724;SDS011;49026;52.600;4.694;2023-03-03T02:21:48;1.45;;;0.85;;
62724;SDS011;49026;52.600;4.694;2023-03-03T02:24:20;2.85;;;1.13;;
62724;SDS011;49026;52.600;4.694;2023-03-03T02:27:14;4.65;;;2.00;;
62724;SDS011;49026;52.600;4.694;2023-03-03T02:29:39;3.45;;;1.58;;
62724;SDS011;49026;52.600;4.694;2023-03-03T02:32:04;4.90;;;1.30;;
62724;SDS011;49026;52.600;4.694;2023-03-03T02:34:30;3.83;;;1.60;;
62724;SDS011;49026;52.600;4.694;2023-03-03T02:36:55;2.67;;;1.33;;
62724;SDS011;49026;52.600;4.694;2023-03-03T02:39:23;4.70;;;1.35;;
62724;SDS011;49026;52.600;4.694;2023-03-03T02:42:03;2.53;;;1.20;;
62724;SDS011;49026;52.600;4.694;2023-03-03T02:44:34;4.60;;;1.45;;
62724;SDS011;49026;52.600;4.694;2023-03-03T02:47:00;3.92;;;1.25;;
62724;SDS011;49026;52.600;4.694;2023-03-03T02:49:29;6.05;;;0.95;;
62724;SDS011;49026;52.600;4.694;2023-03-03T02:51:56;6.28;;;1.65;;
62724;SDS011;49026;52.600;4.694;2023-03-03T02:54:22;1.35;;;0.93;;
62724;SDS011;49026;52.600;4.694;2023-03-03T02:56:49;2.72;;;1.55;;
62724;SDS011;49026;52.600;4.694;2023-03-03T02:59:15;2.10;;;1.10;;
62724;SDS011;49026;52.600;4.694;2023-03-03T03:01:41;4.95;;;1.13;;
62724;SDS011;49026;52.600;4.694;2023-03-03T03:06:39;11.93;;;1.80;;
62724;SDS011;49026;52.600;4.694;2023-03-03T03:09:05;5.07;;;1.02;;
62724;SDS011;49026;52.600;4.694;2023-03-03T03:11:31;4.78;;;1.27;;
62724;SDS011;49026;52.600;4.694;2023-03-03T03:13:59;6.13;;;1.38;;
62724;SDS011;49026;52.600;4.694;2023-03-03T03:16:24;3.33;;;1.50;;
62724;SDS011;49026;52.600;4.694;2023-03-03T03:18:50;8.45;;;1.95;;
62724;SDS011;49026;52.600;4.694;2023-03-03T03:21:15;4.72;;;1.20;;
62724;SDS011;49026;52.600;4.694;2023-03-03T03:23:41;5.63;;;1.40;;
62724;SDS011;49026;52.600;4.694;2023-03-03T03:26:07;7.03;;;1.23;;
62724;SDS011;49026;52.600;4.694;2023-03-03T03:28:33;2.45;;;1.30;;
62724;SDS011;49026;52.600;4.694;2023-03-03T03:30:59;3.22;;;1.40;;
62724;SDS011;49026;52.600;4.694;2023-03-03T03:33:24;8.90;;;1.17;;
62724;SDS011;49026;52.600;4.694;2023-03-03T03:35:52;2.92;;;1.02;;
62724;SDS011;49026;52.600;4.694;2023-03-03T03:38:17;7.25;;;1.42;;
62724;SDS011;49026;52.600;4.694;2023-03-03T03:40:42;1.95;;;1.08;;
62724;SDS011;49026;52.600;4.694;2023-03-03T03:43:08;7.60;;;1.38;;
62724;SDS011;49026;52.600;4.694;2023-03-03T03:45:33;5.88;;;1.30;;
62724;SDS011;49026;52.600;4.694;2023-03-03T03:47:59;6.90;;;1.13;;
62724;SDS011;49026;52.600;4.694;2023-03-03T03:50:24;2.13;;;0.90;;
62724;SDS011;49026;52.600;4.694;2023-03-03T03:52:50;3.50;;;1.25;;
62724;SDS011;49026;52.600;4.694;2023-03-03T03:55:15;5.45;;;1.00;;
62724;SDS011;49026;52.600;4.694;2023-03-03T03:57:41;5.00;;;1.10;;
62724;SDS011;49026;52.600;4.694;2023-03-03T04:00:07;6.03;;;1.10;;
62724;SDS011;49026;52.600;4.694;2023-03-03T04:02:34;3.10;;;1.17;;
62724;SDS011;49026;52.600;4.694;2023-03-03T04:05:00;4.25;;;1.38;;
62724;SDS011;49026;52.600;4.694;2023-03-03T04:07:25;1.95;;;1.00;;
62724;SDS011;49026;52.600;4.694;2023-03-03T04:09:51;4.22;;;1.33;;
62724;SDS011;49026;52.600;4.694;2023-03-03T04:12:16;7.68;;;1.52;;
62724;SDS011;49026;52.600;4.694;2023-03-03T04:14:42;5.40;;;1.50;;
62724;SDS011;49026;52.600;4.694;2023-03-03T04:17:07;3.45;;;1.30;;
62724;SDS011;49026;52.600;4.694;2023-03-03T04:19:34;5.60;;;1.58;;
62724;SDS011;49026;52.600;4.694;2023-03-03T04:21:59;8.15;;;1.88;;
62724;SDS011;49026;52.600;4.694;2023-03-03T04:24:25;3.50;;;1.55;;
62724;SDS011;49026;52.600;4.694;2023-03-03T04:26:50;7.28;;;1.33;;
62724;SDS011;49026;52.600;4.694;2023-03-03T04:29:15;7.65;;;1.30;;
62724;SDS011;49026;52.600;4.694;2023-03-03T04:31:41;14.05;;;1.50;;
62724;SDS011;49026;52.600;4.694;2023-03-03T04:34:06;4.90;;;1.30;;
62724;SDS011;49026;52.600;4.694;2023-03-03T04:36:32;6.15;;;1.48;;
62724;SDS011;49026;52.600;4.694;2023-03-03T04:38:57;4.38;;;1.15;;
62724;SDS011;49026;52.600;4.694;2023-03-03T04:41:22;9.80;;;1.63;;
62724;SDS011;49026;52.600;4.694;2023-03-03T04:43:48;2.58;;;1.02;;
62724;SDS011;49026;52.600;4.694;2023-03-03T04:46:13;13.88;;;1.50;;
62724;SDS011;49026;52.600;4.694;2023-03-03T04:48:38;6.35;;;2.53;;
62724;SDS011;49026;52.600;4.694;2023-03-03T04:51:04;7.75;;;1.35;;
62724;SDS011;49026;52.600;4.694;2023-03-03T04:53:29;3.38;;;1.35;;
62724;SDS011;49026;52.600;4.694;2023-03-03T04:55:55;2.22;;;1.40;;
62724;SDS011;49026;52.600;4.694;2023-03-03T04:58:20;5.00;;;1.35;;
62724;SDS011;49026;52.600;4.694;2023-03-03T05:00:46;5.20;;;1.75;;
62724;SDS011;49026;52.600;4.694;2023-03-03T05:03:17;2.92;;;1.45;;
62724;SDS011;49026;52.600;4.694;2023-03-03T05:05:43;5.72;;;1.25;;
62724;SDS011;49026;52.600;4.694;2023-03-03T05:08:10;5.43;;;1.40;;
62724;SDS011;49026;52.600;4.694;2023-03-03T05:10:36;3.63;;;1.52;;
62724;SDS011;49026;52.600;4.694;2023-03-03T05:13:02;2.88;;;1.50;;
62724;SDS011;49026;52.600;4.694;2023-03-03T05:15:28;2.60;;;1.65;;
62724;SDS011;49026;52.600;4.694;2023-03-03T05:17:54;7.78;;;1.70;;
62724;SDS011;49026;52.600;4.694;2023-03-03T05:20:20;11.02;;;1.80;;
62724;SDS011;49026;52.600;4.694;2023-03-03T05:22:46;10.48;;;1.67;;
62724;SDS011;49026;52.600;4.694;2023-03-03T05:25:11;1.75;;;1.20;;
62724;SDS011;49026;52.600;4.694;2023-03-03T05:27:37;4.20;;;1.55;;
62724;SDS011;49026;52.600;4.694;2023-03-03T05:30:03;2.28;;;1.35;;
62724;SDS011;49026;52.600;4.694;2023-03-03T05:32:29;6.45;;;1.92;;
62724;SDS011;49026;52.600;4.694;2023-03-03T05:34:54;6.88;;;2.00;;
62724;SDS011;49026;52.600;4.694;2023-03-03T05:37:20;11.23;;;2.00;;
62724;SDS011;49026;52.600;4.694;2023-03-03T05:39:45;6.82;;;2.03;;
62724;SDS011;49026;52.600;4.694;2023-03-03T05:42:11;6.57;;;1.90;;
62724;SDS011;49026;52.600;4.694;2023-03-03T05:44:37;3.28;;;2.10;;
62724;SDS011;49026;52.600;4.694;2023-03-03T05:47:02;5.75;;;1.83;;
62724;SDS011;49026;52.600;4.694;2023-03-03T05:49:28;2.55;;;1.65;;
62724;SDS011;49026;52.600;4.694;2023-03-03T05:51:53;2.85;;;1.52;;
62724;SDS011;49026;52.600;4.694;2023-03-03T05:54:19;8.52;;;1.63;;
62724;SDS011;49026;52.600;4.694;2023-03-03T05:56:44;7.55;;;1.90;;
62724;SDS011;49026;52.600;4.694;2023-03-03T05:59:12;5.20;;;1.90;;
62724;SDS011;49026;52.600;4.694;2023-03-03T06:01:37;11.27;;;2.20;;
62724;SDS011;49026;52.600;4.694;2023-03-03T06:04:03;2.30;;;1.67;;
62724;SDS011;49026;52.600;4.694;2023-03-03T06:06:31;6.70;;;1.65;;
62724;SDS011;49026;52.600;4.694;2023-03-03T06:08:56;7.55;;;1.85;;
62724;SDS011;49026;52.600;4.694;2023-03-03T06:11:22;6.45;;;1.63;;
62724;SDS011;49026;52.600;4.694;2023-03-03T06:13:48;7.38;;;1.80;;
62724;SDS011;49026;52.600;4.694;2023-03-03T06:16:13;11.73;;;2.03;;
62724;SDS011;49026;52.600;4.694;2023-03-03T06:18:39;8.70;;;2.00;;
62724;SDS011;49026;52.600;4.694;2023-03-03T06:21:04;6.43;;;2.00;;
62724;SDS011;49026;52.600;4.694;2023-03-03T06:23:30;6.95;;;1.88;;
62724;SDS011;49026;52.600;4.694;2023-03-03T06:25:55;5.38;;;1.80;;
62724;SDS011;49026;52.600;4.694;2023-03-03T06:28:21;7.80;;;2.92;;
62724;SDS011;49026;52.600;4.694;2023-03-03T06:30:51;3.58;;;1.75;;
62724;SDS011;49026;52.600;4.694;2023-03-03T06:33:17;11.45;;;1.70;;
62724;SDS011;49026;52.600;4.694;2023-03-03T06:35:43;8.90;;;2.45;;
62724;SDS011;49026;52.600;4.694;2023-03-03T06:38:08;3.53;;;2.10;;
62724;SDS011;49026;52.600;4.694;2023-03-03T06:40:34;3.85;;;2.08;;
62724;SDS011;49026;52.600;4.694;2023-03-03T06:42:59;9.07;;;2.88;;
62724;SDS011;49026;52.600;4.694;2023-03-03T06:45:27;8.07;;;2.60;;
62724;SDS011;49026;52.600;4.694;2023-03-03T06:47:52;7.68;;;2.08;;
62724;SDS011;49026;52.600;4.694;2023-03-03T06:50:18;6.53;;;2.47;;
62724;SDS011;49026;52.600;4.694;2023-03-03T06:52:47;13.07;;;3.08;;
62724;SDS011;49026;52.600;4.694;2023-03-03T06:55:21;5.43;;;2.80;;
62724;SDS011;49026;52.600;4.694;2023-03-03T06:57:47;5.68;;;2.35;;
62724;SDS011;49026;52.600;4.694;2023-03-03T07:02:40;10.90;;;3.90;;
62724;SDS011;49026;52.600;4.694;2023-03-03T07:05:12;22.33;;;3.88;;
62724;SDS011;49026;52.600;4.694;2023-03-03T07:07:40;15.25;;;3.35;;
62724;SDS011;49026;52.600;4.694;2023-03-03T07:10:06;6.20;;;2.67;;
62724;SDS011;49026;52.600;4.694;2023-03-03T07:12:42;4.20;;;2.63;;
62724;SDS011;49026;52.600;4.694;2023-03-03T07:17:59;4.80;;;2.10;;
62724;SDS011;49026;52.600;4.694;2023-03-03T07:20:34;5.13;;;1.92;;
62724;SDS011;49026;52.600;4.694;2023-03-03T07:23:13;6.45;;;1.55;;
62724;SDS011;49026;52.600;4.694;2023-03-03T07:25:48;5.35;;;1.90;;
62724;SDS011;49026;52.600;4.694;2023-03-03T07:30:55;3.28;;;1.65;;
62724;SDS011;49026;52.600;4.694;2023-03-03T07:33:28;7.65;;;1.60;;
62724;SDS011;49026;52.600;4.694;2023-03-03T07:35:59;4.60;;;1.50;;
62724;SDS011;49026;52.600;4.694;2023-03-03T07:38:36;3.47;;;1.20;;
62724;SDS011;49026;52.600;4.694;2023-03-03T07:41:07;3.30;;;1.23;;
62724;SDS011;49026;52.600;4.694;2023-03-03T07:43:39;3.45;;;1.40;;
62724;SDS011;49026;52.600;4.694;2023-03-03T07:48:47;2.35;;;1.35;;
62724;SDS011;49026;52.600;4.694;2023-03-03T07:51:20;4.93;;;1.60;;
62724;SDS011;49026;52.600;4.694;2023-03-03T07:53:52;5.90;;;1.63;;
62724;SDS011;49026;52.600;4.694;2023-03-03T07:56:38;4.22;;;1.77;;
62724;SDS011;49026;52.600;4.694;2023-03-03T08:01:55;13.63;;;2.25;;
62724;SDS011;49026;52.600;4.694;2023-03-03T08:07:08;2.60;;;1.50;;
62724;SDS011;49026;52.600;4.694;2023-03-03T08:12:15;4.78;;;1.92;;
62724;SDS011;49026;52.600;4.694;2023-03-03T08:14:52;3.53;;;1.55;;
62724;SDS011;49026;52.600;4.694;2023-03-03T08:17:20;3.97;;;1.60;;
62724;SDS011;49026;52.600;4.694;2023-03-03T08:19:47;6.43;;;1.80;;
62724;SDS011;49026;52.600;4.694;2023-03-03T08:22:17;4.82;;;1.73;;
62724;SDS011;49026;52.600;4.694;2023-03-03T08:24:49;2.95;;;1.60;;
62724;SDS011;49026;52.600;4.694;2023-03-03T08:27:14;3.83;;;1.23;;
62724;SDS011;49026;52.600;4.694;2023-03-03T08:29:40;2.88;;;1.05;;
62724;SDS011;49026;52.600;4.694;2023-03-03T08:32:05;7.13;;;1.33;;
62724;SDS011;49026;52.600;4.694;2023-03-03T08:34:30;3.70;;;1.05;;
62724;SDS011;49026;52.600;4.694;2023-03-03T08:36:56;2.38;;;0.90;;
62724;SDS011;49026;52.600;4.694;2023-03-03T08:39:24;2.50;;;1.05;;
62724;SDS011;49026;52.600;4.694;2023-03-03T08:41:49;4.85;;;1.10;;
62724;SDS011;49026;52.600;4.694;2023-03-03T08:44:15;6.57;;;1.27;;
62724;SDS011;49026;52.600;4.694;2023-03-03T08:46:41;4.18;;;1.00;;
62724;SDS011;49026;52.600;4.694;2023-03-03T08:49:07;3.55;;;1.02;;
62724;SDS011;49026;52.600;4.694;2023-03-03T08:51:33;6.88;;;1.55;;
62724;SDS011;49026;52.600;4.694;2023-03-03T08:53:59;3.28;;;1.35;;
62724;SDS011;49026;52.600;4.694;2023-03-03T08:56:24;2.40;;;1.08;;
62724;SDS011;49026;52.600;4.694;2023-03-03T08:58:49;3.03;;;0.90;;
62724;SDS011;49026;52.600;4.694;2023-03-03T09:01:15;4.38;;;1.20;;
62724;SDS011;49026;52.600;4.694;2023-03-03T09:03:41;5.85;;;1.20;;
62724;SDS011;49026;52.600;4.694;2023-03-03T09:06:07;3.75;;;0.90;;
62724;SDS011;49026;52.600;4.694;2023-03-03T09:08:33;4.97;;;1.10;;
62724;SDS011;49026;52.600;4.694;2023-03-03T09:10:58;1.52;;;1.02;;
62724;SDS011;49026;52.600;4.694;2023-03-03T09:13:24;2.53;;;1.00;;
62724;SDS011;49026;52.600;4.694;2023-03-03T09:15:53;4.03;;;0.90;;
62724;SDS011;49026;52.600;4.694;2023-03-03T09:18:36;2.72;;;1.13;;
62724;SDS011;49026;52.600;4.694;2023-03-03T09:21:15;7.43;;;0.98;;
62724;SDS011;49026;52.600;4.694;2023-03-03T09:23:59;4.32;;;0.85;;
62724;SDS011;49026;52.600;4.694;2023-03-03T09:31:55;4.45;;;1.00;;
62724;SDS011;49026;52.600;4.694;2023-03-03T09:37:00;3.42;;;0.80;;
62724;SDS011;49026;52.600;4.694;2023-03-03T09:39:28;0.57;;;0.50;;
62724;SDS011;49026;52.600;4.694;2023-03-03T10:01:39;1.17;;;0.50;;
62724;SDS011;49026;52.600;4.694;2023-03-03T10:07:12;1.27;;;0.80;;
62724;SDS011;49026;52.600;4.694;2023-03-03T10:12:29;1.10;;;0.60;;
62724;SDS011;49026;52.600;4.694;2023-03-03T10:17:38;1.27;;;0.63;;
62724;SDS011;49026;52.600;4.694;2023-03-03T10:22:54;3.63;;;0.80;;
62724;SDS011;49026;52.600;4.694;2023-03-03T10:28:35;2.83;;;0.60;;
62724;SDS011;49026;52.600;4.694;2023-03-03T10:31:11;7.32;;;1.10;;
62724;SDS011;49026;52.600;4.694;2023-03-03T10:39:34;0.45;;;0.45;;
62724;SDS011;49026;52.600;4.694;2023-03-03T10:50:57;1.17;;;0.70;;
62724;SDS011;49026;52.600;4.694;2023-03-03T10:59:14;2.08;;;0.73;;
62724;SDS011;49026;52.600;4.694;2023-03-03T11:02:17;1.02;;;0.50;;
62724;SDS011;49026;52.600;4.694;2023-03-03T11:04:53;4.57;;;1.00;;
62724;SDS011;49026;52.600;4.694;2023-03-03T11:07:28;3.35;;;0.82;;
62724;SDS011;49026;52.600;4.694;2023-03-03T11:27:36;5.25;;;0.85;;
62724;SDS011;49026;52.600;4.694;2023-03-03T11:35:50;1.30;;;0.80;;
62724;SDS011;49026;52.600;4.694;2023-03-03T11:41:13;3.83;;;1.00;;
62724;SDS011;49026;52.600;4.694;2023-03-03T11:43:51;1.88;;;0.80;;
62724;SDS011;49026;52.600;4.694;2023-03-03T11:46:43;1.65;;;0.95;;
62724;SDS011;49026;52.600;4.694;2023-03-03T11:54:48;8.68;;;1.10;;
62724;SDS011;49026;52.600;4.694;2023-03-03T11:57:26;3.33;;;0.82;;
62724;SDS011;49026;52.600;4.694;2023-03-03T12:08:30;4.22;;;0.73;;
62724;SDS011;49026;52.600;4.694;2023-03-03T12:11:06;1.13;;;0.65;;
62724;SDS011;49026;52.600;4.694;2023-03-03T12:26:59;0.95;;;0.60;;
62724;SDS011;49026;52.600;4.694;2023-03-03T12:29:40;3.50;;;0.82;;
62724;SDS011;49026;52.600;4.694;2023-03-03T12:32:32;3.70;;;0.77;;
62724;SDS011;49026;52.600;4.694;2023-03-03T12:35:13;7.30;;;1.50;;
62724;SDS011;49026;52.600;4.694;2023-03-03T12:40:45;6.88;;;0.88;;
62724;SDS011;49026;52.600;4.694;2023-03-03T12:46:06;2.15;;;0.70;;
62724;SDS011;49026;52.600;4.694;2023-03-03T12:48:39;4.05;;;0.80;;
62724;SDS011;49026;52.600;4.694;2023-03-03T12:54:07;1.52;;;1.02;;
62724;SDS011;49026;52.600;4.694;2023-03-03T12:57:24;6.07;;;1.33;;
62724;SDS011;49026;52.600;4.694;2023-03-03T13:02:48;5.15;;;1.02;;
62724;SDS011;49026;52.600;4.694;2023-03-03T13:05:33;4.43;;;0.70;;
62724;SDS011;49026;52.600;4.694;2023-03-03T13:16:13;1.10;;;0.50;;
62724;SDS011;49026;52.600;4.694;2023-03-03T13:21:23;3.75;;;0.80;;
62724;SDS011;49026;52.600;4.694;2023-03-03T13:29:18;2.25;;;0.50;;
62724;SDS011;49026;52.600;4.694;2023-03-03T13:31:46;5.18;;;0.82;;
62724;SDS011;49026;52.600;4.694;2023-03-03T13:34:19;6.00;;;0.80;;
62724;SDS011;49026;52.600;4.694;2023-03-03T13:39:58;3.80;;;0.80;;
62724;SDS011;49026;52.600;4.694;2023-03-03T13:42:40;1.58;;;0.60;;
62724;SDS011;49026;52.600;4.694;2023-03-03T13:46:30;5.03;;;0.93;;
62724;SDS011;49026;52.600;4.694;2023-03-03T13:51:40;6.20;;;1.05;;
62724;SDS011;49026;52.600;4.694;2023-03-03T13:54:35;3.58;;;1.42;;
62724;SDS011;49026;52.600;4.694;2023-03-03T14:05:00;3.92;;;0.88;;
62724;SDS011;49026;52.600;4.694;2023-03-03T14:10:20;6.03;;;1.05;;
62724;SDS011;49026;52.600;4.694;2023-03-03T14:12:55;7.13;;;1.30;;
62724;SDS011;49026;52.600;4.694;2023-03-03T14:15:28;8.40;;;1.50;;
62724;SDS011;49026;52.600;4.694;2023-03-03T14:18:02;7.03;;;1.23;;
62724;SDS011;49026;52.600;4.694;2023-03-03T14:20:31;6.63;;;1.20;;
62724;SDS011;49026;52.600;4.694;2023-03-03T14:26:14;6.03;;;1.08;;
62724;SDS011;49026;52.600;4.694;2023-03-03T14:34:14;5.72;;;0.90;;
62724;SDS011;49026;52.600;4.694;2023-03-03T14:36:49;8.00;;;1.50;;
62724;SDS011;49026;52.600;4.694;2023-03-03T14:39:32;10.05;;;1.45;;
62724;SDS011;49026;52.600;4.694;2023-03-03T14:44:56;16.13;;;1.30;;
62724;SDS011;49026;52.600;4.694;2023-03-03T14:47:25;5.53;;;1.20;;
62724;SDS011;49026;52.600;4.694;2023-03-03T14:49:52;4.68;;;1.30;;
62724;SDS011;49026;52.600;4.694;2023-03-03T14:54:47;6.05;;;1.52;;
62724;SDS011;49026;52.600;4.694;2023-03-03T14:57:48;11.55;;;2.28;;
62724;SDS011;49026;52.600;4.694;2023-03-03T15:05:23;9.15;;;1.30;;
62724;SDS011;49026;52.600;4.694;2023-03-03T15:07:54;6.00;;;1.27;;
62724;SDS011;49026;52.600;4.694;2023-03-03T15:10:33;8.88;;;1.70;;
62724;SDS011;49026;52.600;4.694;2023-03-03T15:16:11;11.02;;;1.95;;
62724;SDS011;49026;52.600;4.694;2023-03-03T15:21:29;30.55;;;2.97;;
62724;SDS011;49026;52.600;4.694;2023-03-03T15:24:09;12.35;;;1.92;;
62724;SDS011;49026;52.600;4.694;2023-03-03T15:26:56;13.63;;;1.77;;
62724;SDS011;49026;52.600;4.694;2023-03-03T15:29:33;9.20;;;1.58;;
62724;SDS011;49026;52.600;4.694;2023-03-03T15:40:48;7.00;;;1.40;;
62724;SDS011;49026;52.600;4.694;2023-03-03T15:43:25;15.02;;;2.67;;
62724;SDS011;49026;52.600;4.694;2023-03-03T15:46:18;10.85;;;1.90;;
62724;SDS011;49026;52.600;4.694;2023-03-03T15:49:42;12.70;;;2.47;;
62724;SDS011;49026;52.600;4.694;2023-03-03T15:52:19;14.93;;;2.60;;
62724;SDS011;49026;52.600;4.694;2023-03-03T15:55:03;23.23;;;2.75;;
62724;SDS011;49026;52.600;4.694;2023-03-03T16:00:48;15.73;;;2.00;;
62724;SDS011;49026;52.600;4.694;2023-03-03T16:03:20;15.63;;;2.00;;
62724;SDS011;49026;52.600;4.694;2023-03-03T16:06:02;9.73;;;2.30;;
62724;SDS011;49026;52.600;4.694;2023-03-03T16:11:36;16.38;;;2.42;;
62724;SDS011;49026;52.600;4.694;2023-03-03T16:17:16;12.85;;;1.98;;
62724;SDS011;49026;52.600;4.694;2023-03-03T16:25:47;14.25;;;2.65;;
62724;SDS011;49026;52.600;4.694;2023-03-03T16:31:31;16.27;;;2.15;;
62724;SDS011;49026;52.600;4.694;2023-03-03T16:37:11;22.10;;;2.80;;
62724;SDS011;49026;52.600;4.694;2023-03-03T16:39:56;13.20;;;1.88;;
62724;SDS011;49026;52.600;4.694;2023-03-03T16:42:35;15.20;;;2.05;;
62724;SDS011;49026;52.600;4.694;2023-03-03T16:48:09;15.90;;;2.75;;
62724;SDS011;49026;52.600;4.694;2023-03-03T16:56:17;10.15;;;1.77;;
62724;SDS011;49026;52.600;4.694;2023-03-03T17:06:41;13.45;;;2.50;;
62724;SDS011;49026;52.600;4.694;2023-03-03T17:14:53;10.07;;;2.05;;
62724;SDS011;49026;52.600;4.694;2023-03-03T17:20:16;15.20;;;2.13;;
62724;SDS011;49026;52.600;4.694;2023-03-03T17:37:11;15.88;;;2.15;;
62724;SDS011;49026;52.600;4.694;2023-03-03T17:42:53;18.90;;;4.25;;
62724;SDS011;49026;52.600;4.694;2023-03-03T17:45:36;19.40;;;2.88;;
62724;SDS011;49026;52.600;4.694;2023-03-03T17:48:08;20.48;;;3.25;;
62724;SDS011;49026;52.600;4.694;2023-03-03T17:53:46;12.52;;;2.45;;
62724;SDS011;49026;52.600;4.694;2023-03-03T17:59:08;16.90;;;2.92;;
62724;SDS011;49026;52.600;4.694;2023-03-03T18:02:01;15.32;;;1.92;;
62724;SDS011;49026;52.600;4.694;2023-03-03T18:07:55;8.70;;;1.67;;
62724;SDS011;49026;52.600;4.694;2023-03-03T18:13:34;10.75;;;1.50;;
62724;SDS011;49026;52.600;4.694;2023-03-03T18:33:14;15.88;;;2.30;;
62724;SDS011;49026;52.600;4.694;2023-03-03T18:37:46;25.13;;;3.13;;
62724;SDS011;49026;52.600;4.694;2023-03-03T18:42:42;20.50;;;4.95;;
62724;SDS011;49026;52.600;4.694;2023-03-03T18:45:10;15.20;;;3.78;;
62724;SDS011;49026;52.600;4.694;2023-03-03T18:50:47;15.60;;;2.92;;
62724;SDS011;49026;52.600;4.694;2023-03-03T18:53:21;14.55;;;2.22;;
62724;SDS011;49026;52.600;4.694;2023-03-03T18:55:55;17.13;;;2.83;;
62724;SDS011;49026;52.600;4.694;2023-03-03T19:00:58;19.67;;;2.63;;
62724;SDS011;49026;52.600;4.694;2023-03-03T19:03:28;12.60;;;2.60;;
62724;SDS011;49026;52.600;4.694;2023-03-03T19:05:58;19.92;;;3.10;;
62724;SDS011;49026;52.600;4.694;2023-03-03T19:08:29;16.65;;;2.58;;
62724;SDS011;49026;52.600;4.694;2023-03-03T19:11:30;21.85;;;4.68;;
62724;SDS011;49026;52.600;4.694;2023-03-03T19:16:40;15.23;;;2.40;;
62724;SDS011;49026;52.600;4.694;2023-03-03T19:21:36;17.75;;;2.85;;
62724;SDS011;49026;52.600;4.694;2023-03-03T19:29:59;20.85;;;2.28;;
62724;SDS011;49026;52.600;4.694;2023-03-03T19:35:29;14.38;;;2.03;;
62724;SDS011;49026;52.600;4.694;2023-03-03T19:38:26;23.43;;;3.13;;
62724;SDS011;49026;52.600;4.694;2023-03-03T19:43:56;13.65;;;2.22;;
62724;SDS011;49026;52.600;4.694;2023-03-03T19:46:41;16.02;;;2.80;;
62724;SDS011;49026;52.600;4.694;2023-03-03T20:00:47;21.15;;;3.20;;
62724;SDS011;49026;52.600;4.694;2023-03-03T20:03:28;14.50;;;2.40;;
62724;SDS011;49026;52.600;4.694;2023-03-03T20:08:55;17.42;;;2.20;;
62724;SDS011;49026;52.600;4.694;2023-03-03T20:11:38;28.10;;;2.75;;
62724;SDS011;49026;52.600;4.694;2023-03-03T20:25:01;14.73;;;1.92;;
62724;SDS011;49026;52.600;4.694;2023-03-03T20:30:41;8.63;;;1.80;;
62724;SDS011;49026;52.600;4.694;2023-03-03T20:41:31;13.40;;;2.53;;
62724;SDS011;49026;52.600;4.694;2023-03-03T20:44:22;23.13;;;3.17;;
62724;SDS011;49026;52.600;4.694;2023-03-03T20:49:53;11.93;;;2.28;;
62724;SDS011;49026;52.600;4.694;2023-03-03T20:52:44;17.27;;;2.58;;
62724;SDS011;49026;52.600;4.694;2023-03-03T20:55:27;29.77;;;3.97;;
62724;SDS011;49026;52.600;4.694;2023-03-03T21:00:30;19.20;;;2.70;;
62724;SDS011;49026;52.600;4.694;2023-03-03T21:03:56;17.85;;;3.85;;
62724;SDS011;49026;52.600;4.694;2023-03-03T21:06:11;14.52;;;2.35;;
62724;SDS011;49026;52.600;4.694;2023-03-03T21:08:51;19.08;;;3.05;;
62724;SDS011;49026;52.600;4.694;2023-03-03T21:14:16;20.50;;;3.70;;
62724;SDS011;49026;52.600;4.694;2023-03-03T21:16:49;16.92;;;2.28;;
62724;SDS011;49026;52.600;4.694;2023-03-03T21:19:23;13.02;;;2.00;;
62724;SDS011;49026;52.600;4.694;2023-03-03T21:21:51;13.45;;;2.35;;
62724;SDS011;49026;52.600;4.694;2023-03-03T21:24:18;11.23;;;2.65;;
62724;SDS011;49026;52.600;4.694;2023-03-03T21:26:48;13.85;;;2.20;;
62724;SDS011;49026;52.600;4.694;2023-03-03T21:29:25;21.60;;;2.53;;
62724;SDS011;49026;52.600;4.694;2023-03-03T21:31:57;12.20;;;2.33;;
62724;SDS011;49026;52.600;4.694;2023-03-03T21:34:26;12.23;;;2.05;;
62724;SDS011;49026;52.600;4.694;2023-03-03T21:36:54;15.02;;;3.05;;
62724;SDS011;49026;52.600;4.694;2023-03-03T21:41:52;17.83;;;2.17;;
62724;SDS011;49026;52.600;4.694;2023-03-03T21:47:03;15.23;;;1.95;;
62724;SDS011;49026;52.600;4.694;2023-03-03T21:49:30;13.82;;;1.73;;